Time;durP1;ratioP1;P1;durP2;ratioP2;P2;SDS_P1;SDS_P2;PMS_P1;PMS_P2;Temp;Humidity;BMP_temperature;BMP_pressure;BME280_temperature;BME280_humidity;BME280_pressure;Samples;Min_cycle;Max_cycle;Signal;HPM_P1;HPM_P2
2024/03/06 00:01:47;;;;;;;;;4.00;4.00;;;;;;;;5002580;28;45325;-83
2024/03/06 00:04:12;;;;;;;;;2.67;2.67;;;;;;;;5002355;28;45871;-84
2024/03/06 00:06:37;;;;;;;;;2.00;2.00;;;;;;;;5020389;28;45578;-83
2024/03/06 00:09:03;;;;;;;;;3.00;3.00;;;;;;;;5002454;28;45819;-83
2024/03/06 00:11:28;;;;;;;;;5.00;3.00;;;;;;;;5020272;28;45313;-84
2024/03/06 00:13:53;;;;;;;;;3.67;3.67;;;;;;;;5002294;28;46880;-84
2024/03/06 00:16:18;;;;;;;;;4.67;3.33;;;;;;;;5019802;28;45353;-85
2024/03/06 00:18:44;;;;;;;;;5.67;3.00;;;;;;;;5020055;28;45262;-83
2024/03/06 00:21:09;;;;;;;;;5.00;5.00;;;;;;;;5002484;28;45340;-84
2024/03/06 00:23:35;;;;;;;;;2.00;2.00;;;;;;;;5001984;28;45902;-85
2024/03/06 00:26:02;;;;;;;;;4.00;3.33;;;;;;;;5018939;28;45295;-84
2024/03/06 00:28:27;;;;;;;;;4.33;4.33;;;;;;;;5020228;28;45352;-83
2024/03/06 00:30:52;;;;;;;;;3.00;3.00;;;;;;;;5019517;28;45237;-84
2024/03/06 00:33:17;;;;;;;;;4.33;2.33;;;;;;;;5002191;28;46446;-84
2024/03/06 00:35:42;;;;;;;;;4.33;4.33;;;;;;;;5019866;28;46244;-84
2024/03/06 00:38:08;;;;;;;;;3.33;2.67;;;;;;;;5002145;28;45484;-84
2024/03/06 00:40:33;;;;;;;;;3.33;3.33;;;;;;;;5002229;28;45344;-84
2024/03/06 00:42:58;;;;;;;;;2.67;2.33;;;;;;;;5019705;28;45216;-84
2024/03/06 00:45:24;;;;;;;;;2.00;2.00;;;;;;;;5019615;28;45596;-85
2024/03/06 00:47:49;;;;;;;;;3.33;3.00;;;;;;;;5019738;28;45199;-85
2024/03/06 00:50:16;;;;;;;;;3.00;3.00;;;;;;;;5001769;28;45430;-84
2024/03/06 00:52:42;;;;;;;;;2.33;2.33;;;;;;;;5019713;28;45432;-84
2024/03/06 00:55:07;;;;;;;;;3.00;3.00;;;;;;;;5001464;28;46274;-84
2024/03/06 00:57:32;;;;;;;;;4.00;3.33;;;;;;;;5019559;28;45254;-84
2024/03/06 00:59:58;;;;;;;;;4.00;4.00;;;;;;;;5019570;28;45392;-84
2024/03/06 01:02:23;;;;;;;;;7.00;6.33;;;;;;;;5019700;28;45230;-84
2024/03/06 01:04:51;;;;;;;;;3.00;3.00;;;;;;;;5019284;28;45732;-85
2024/03/06 01:07:16;;;;;;;;;4.00;4.00;;;;;;;;5019356;28;45325;-84
2024/03/06 01:09:41;;;;;;;;;4.00;3.67;;;;;;;;5019436;28;45325;-84
2024/03/06 01:12:06;;;;;;;;;4.00;4.00;;;;;;;;5019384;28;45445;-84
2024/03/06 01:14:31;;;;;;;;;3.00;3.00;;;;;;;;5011410;28;46178;-83
2024/03/06 01:16:57;;;;;;;;;5.00;5.00;;;;;;;;4981572;28;45284;-85
2024/03/06 01:19:22;;;;;;;;;5.00;4.33;;;;;;;;4999449;28;45547;-84
2024/03/06 01:21:48;;;;;;;;;5.33;5.33;;;;;;;;4998538;28;45428;-84
2024/03/06 01:24:13;;;;;;;;;4.67;4.00;;;;;;;;4981514;28;48376;-85
2024/03/06 01:26:40;;;;;;;;;5.00;5.00;;;;;;;;4999437;28;45309;-85
2024/03/06 01:29:05;;;;;;;;;6.00;6.00;;;;;;;;4999359;28;45238;-84
2024/03/06 01:31:30;;;;;;;;;7.33;6.67;;;;;;;;4981133;28;45302;-85
2024/03/06 01:33:55;;;;;;;;;6.00;6.00;;;;;;;;4999075;28;45325;-85
2024/03/06 01:36:20;;;;;;;;;5.33;5.00;;;;;;;;4999314;28;45269;-84
2024/03/06 01:38:46;;;;;;;;;5.00;5.00;;;;;;;;5001799;28;45287;-84
2024/03/06 01:41:11;;;;;;;;;5.00;5.00;;;;;;;;5001865;28;45286;-84
2024/03/06 01:43:37;;;;;;;;;4.67;4.67;;;;;;;;5002447;28;46336;-84
2024/03/06 01:46:03;;;;;;;;;7.33;5.67;;;;;;;;4984699;28;46047;-84
2024/03/06 01:48:31;;;;;;;;;8.00;8.00;;;;;;;;5002687;28;45472;-84
2024/03/06 01:50:57;;;;;;;;;4.33;4.33;;;;;;;;5002410;28;45302;-84
2024/03/06 01:53:24;;;;;;;;;7.00;6.00;;;;;;;;4984623;28;47083;-84
2024/03/06 01:55:50;;;;;;;;;4.67;4.67;;;;;;;;5002498;28;45333;-84
2024/03/06 01:58:15;;;;;;;;;4.33;4.33;;;;;;;;4999693;28;45487;-84
2024/03/06 02:00:41;;;;;;;;;6.33;6.33;;;;;;;;5022007;28;45219;-85
2024/03/06 02:03:06;;;;;;;;;5.67;5.00;;;;;;;;5022077;28;45345;-83
2024/03/06 02:05:32;;;;;;;;;6.33;5.67;;;;;;;;5022195;28;45148;-84
2024/03/06 02:07:58;;;;;;;;;5.00;5.00;;;;;;;;5022204;28;45321;-84
2024/03/06 02:10:23;;;;;;;;;7.67;7.33;;;;;;;;5022025;28;45345;-85
2024/03/06 02:12:49;;;;;;;;;7.33;7.00;;;;;;;;5021841;28;46033;-84
2024/03/06 02:15:14;;;;;;;;;7.00;7.00;;;;;;;;5021853;28;45292;-84
2024/03/06 02:17:40;;;;;;;;;6.67;5.33;;;;;;;;5004289;28;45380;-85
2024/03/06 02:20:05;;;;;;;;;6.67;6.67;;;;;;;;5021847;28;45397;-85
2024/03/06 02:22:32;;;;;;;;;6.67;6.67;;;;;;;;5021792;28;46118;-85
2024/03/06 02:24:57;;;;;;;;;5.00;5.00;;;;;;;;5021515;28;45252;-84
2024/03/06 02:27:22;;;;;;;;;5.67;5.67;;;;;;;;5021424;28;45391;-84
2024/03/06 02:29:47;;;;;;;;;5.33;5.33;;;;;;;;5021399;28;45233;-84
2024/03/06 02:32:13;;;;;;;;;8.00;5.33;;;;;;;;5021624;28;45374;-84
2024/03/06 02:34:40;;;;;;;;;10.33;7.00;;;;;;;;5003791;28;45292;-84
2024/03/06 02:37:05;;;;;;;;;6.00;6.00;;;;;;;;5021780;28;45278;-84
2024/03/06 02:39:30;;;;;;;;;4.33;4.33;;;;;;;;5003658;28;45435;-84
2024/03/06 02:41:56;;;;;;;;;3.00;3.00;;;;;;;;5021804;28;45302;-85
2024/03/06 02:44:21;;;;;;;;;9.00;7.33;;;;;;;;5021599;28;45443;-84
2024/03/06 02:46:49;;;;;;;;;7.00;6.00;;;;;;;;5003558;28;45298;-85
2024/03/06 02:49:15;;;;;;;;;8.67;7.33;;;;;;;;5002662;28;46510;-84
2024/03/06 02:51:40;;;;;;;;;6.00;6.00;;;;;;;;5021285;28;46474;-83
2024/03/06 02:54:05;;;;;;;;;7.67;5.67;;;;;;;;5003393;28;45443;-83
2024/03/06 02:56:30;;;;;;;;;5.67;5.67;;;;;;;;5002683;28;45313;-83
2024/03/06 02:58:56;;;;;;;;;4.67;4.67;;;;;;;;5001474;28;45364;-83
2024/03/06 03:01:21;;;;;;;;;8.00;8.00;;;;;;;;5001313;28;45413;-84
2024/03/06 03:03:47;;;;;;;;;7.00;7.00;;;;;;;;5001394;28;45295;-84
2024/03/06 03:06:12;;;;;;;;;8.67;8.00;;;;;;;;4983926;28;45346;-83
2024/03/06 03:08:38;;;;;;;;;6.00;6.00;;;;;;;;5000503;28;45366;-83
2024/03/06 03:11:03;;;;;;;;;3.00;2.00;;;;;;;;5000571;28;45369;-85
2024/03/06 03:13:30;;;;;;;;;5.00;4.33;;;;;;;;4982987;28;45990;-85
2024/03/06 03:15:55;;;;;;;;;6.00;6.00;;;;;;;;5000665;28;45275;-84
2024/03/06 03:18:20;;;;;;;;;11.67;9.00;;;;;;;;4982534;28;47502;-84
2024/03/06 03:20:47;;;;;;;;;6.00;6.00;;;;;;;;5000515;28;45434;-84
2024/03/06 03:23:15;;;;;;;;;6.33;6.00;;;;;;;;5001171;28;45399;-84
2024/03/06 03:25:41;;;;;;;;;7.33;7.33;;;;;;;;5001267;28;45362;-85
2024/03/06 03:28:06;;;;;;;;;7.00;7.00;;;;;;;;5000961;28;45353;-84
2024/03/06 03:30:32;;;;;;;;;6.33;5.33;;;;;;;;5000359;28;45439;-84
2024/03/06 03:32:57;;;;;;;;;9.00;7.00;;;;;;;;5001045;28;45632;-84
2024/03/06 03:35:25;;;;;;;;;10.00;7.00;;;;;;;;5001078;28;45321;-83
2024/03/06 03:37:51;;;;;;;;;7.33;6.00;;;;;;;;5001054;28;45299;-84
2024/03/06 03:40:17;;;;;;;;;7.33;6.67;;;;;;;;5000795;28;46078;-84
2024/03/06 03:42:43;;;;;;;;;8.67;8.33;;;;;;;;5000738;28;45268;-83
2024/03/06 03:45:08;;;;;;;;;8.67;8.67;;;;;;;;5000804;28;45302;-84
2024/03/06 03:47:34;;;;;;;;;8.67;8.67;;;;;;;;4982818;28;45963;-84
2024/03/06 03:49:59;;;;;;;;;7.33;7.33;;;;;;;;4982817;28;47446;-84
2024/03/06 03:52:24;;;;;;;;;9.67;9.33;;;;;;;;5000626;28;45297;-84
2024/03/06 03:54:49;;;;;;;;;7.00;7.00;;;;;;;;5000890;28;45309;-84
2024/03/06 03:57:16;;;;;;;;;9.33;8.33;;;;;;;;5007190;28;45483;-84
2024/03/06 03:59:41;;;;;;;;;9.33;8.33;;;;;;;;5020341;28;45405;-84
2024/03/06 04:02:07;;;;;;;;;9.00;8.33;;;;;;;;5019104;28;45282;-83
2024/03/06 04:04:33;;;;;;;;;6.67;6.67;;;;;;;;5002515;28;45268;-84
2024/03/06 04:06:59;;;;;;;;;5.33;5.00;;;;;;;;5020242;28;45217;-84
2024/03/06 04:09:24;;;;;;;;;8.33;8.00;;;;;;;;5001964;28;48395;-83
2024/03/06 04:11:49;;;;;;;;;6.00;5.00;;;;;;;;5019877;28;45678;-84
2024/03/06 04:14:15;;;;;;;;;11.67;11.00;;;;;;;;5020485;28;45704;-84
2024/03/06 04:16:40;;;;;;;;;11.33;8.00;;;;;;;;5019902;28;45500;-83
2024/03/06 04:19:05;;;;;;;;;9.33;9.00;;;;;;;;5001942;28;47092;-84
2024/03/06 04:21:30;;;;;;;;;8.00;8.00;;;;;;;;5020088;28;45368;-84
2024/03/06 04:23:56;;;;;;;;;9.00;8.67;;;;;;;;5020342;28;45246;-84
2024/03/06 04:26:21;;;;;;;;;9.33;8.00;;;;;;;;5020011;28;45254;-83
2024/03/06 04:28:46;;;;;;;;;7.33;7.33;;;;;;;;5001784;28;47583;-83
2024/03/06 04:31:11;;;;;;;;;6.00;6.00;;;;;;;;5019675;28;45174;-83
2024/03/06 04:33:36;;;;;;;;;8.00;7.67;;;;;;;;5020014;28;45144;-84
2024/03/06 04:36:02;;;;;;;;;11.67;9.00;;;;;;;;5019936;28;45263;-84
2024/03/06 04:38:29;;;;;;;;;9.33;8.00;;;;;;;;5019864;28;47546;-83
2024/03/06 04:40:54;;;;;;;;;6.67;6.67;;;;;;;;5001781;28;45308;-84
2024/03/06 04:43:19;;;;;;;;;6.67;6.67;;;;;;;;5001947;28;45459;-84
2024/03/06 04:45:44;;;;;;;;;8.00;8.00;;;;;;;;5019414;28;45477;-83
2024/03/06 04:48:10;;;;;;;;;10.33;9.33;;;;;;;;5001836;28;48290;-84
2024/03/06 04:50:35;;;;;;;;;6.33;5.33;;;;;;;;5016142;28;45284;-83
2024/03/06 04:53:00;;;;;;;;;8.00;7.00;;;;;;;;4999932;28;45417;-84
2024/03/06 04:55:26;;;;;;;;;10.67;8.00;;;;;;;;4999634;28;45266;-84
2024/03/06 04:57:52;;;;;;;;;11.67;10.67;;;;;;;;4993514;28;48171;-84
2024/03/06 05:00:18;;;;;;;;;11.33;11.33;;;;;;;;5019061;28;45248;-83
2024/03/06 05:02:43;;;;;;;;;6.00;6.00;;;;;;;;5019651;28;45316;-83
2024/03/06 05:05:08;;;;;;;;;8.67;7.00;;;;;;;;5019361;28;45463;-83
2024/03/06 05:07:34;;;;;;;;;9.33;9.33;;;;;;;;5019439;28;45309;-83
2024/03/06 05:09:59;;;;;;;;;11.00;8.00;;;;;;;;5001382;28;45295;-84
2024/03/06 05:12:24;;;;;;;;;9.00;9.00;;;;;;;;5000896;28;45365;-83
2024/03/06 05:14:53;;;;;;;;;13.00;11.00;;;;;;;;5018982;28;45628;-84
2024/03/06 05:17:18;;;;;;;;;11.33;9.67;;;;;;;;5001364;28;47073;-84
2024/03/06 05:19:44;;;;;;;;;8.00;7.33;;;;;;;;5018944;28;45258;-84
2024/03/06 05:22:11;;;;;;;;;11.33;10.67;;;;;;;;5001393;28;45293;-84
2024/03/06 05:24:36;;;;;;;;;14.00;14.00;;;;;;;;5019160;28;45388;-83
2024/03/06 05:27:01;;;;;;;;;12.33;11.67;;;;;;;;5018959;28;45526;-84
2024/03/06 05:29:26;;;;;;;;;10.67;10.67;;;;;;;;5018673;28;45475;-84
2024/03/06 05:31:51;;;;;;;;;8.33;8.33;;;;;;;;5001423;28;45467;-84
2024/03/06 05:34:17;;;;;;;;;13.00;11.00;;;;;;;;5001205;28;46475;-83
2024/03/06 05:36:42;;;;;;;;;12.33;12.33;;;;;;;;5019005;28;46692;-83
2024/03/06 05:39:12;;;;;;;;;9.33;9.33;;;;;;;;5001357;28;46257;-83
2024/03/06 05:41:37;;;;;;;;;14.00;13.00;;;;;;;;5019123;28;45305;-83
2024/03/06 05:44:04;;;;;;;;;9.67;7.67;;;;;;;;5019024;28;45467;-83
2024/03/06 05:46:29;;;;;;;;;9.33;9.33;;;;;;;;4984448;28;48186;-83
2024/03/06 05:48:54;;;;;;;;;13.00;12.00;;;;;;;;4998622;28;45572;-83
2024/03/06 05:51:19;;;;;;;;;12.00;11.33;;;;;;;;4981249;28;45322;-84
2024/03/06 05:53:45;;;;;;;;;9.67;8.00;;;;;;;;4998863;28;45318;-83
2024/03/06 05:56:10;;;;;;;;;8.33;8.33;;;;;;;;4981276;28;47867;-83
2024/03/06 05:58:35;;;;;;;;;14.67;11.67;;;;;;;;5016443;28;45309;-83
2024/03/06 06:01:01;;;;;;;;;16.33;13.00;;;;;;;;5018667;28;45397;-83
2024/03/06 06:03:27;;;;;;;;;11.00;11.00;;;;;;;;5018501;28;45777;-83
2024/03/06 06:05:53;;;;;;;;;12.33;7.33;;;;;;;;5018624;28;45365;-84
2024/03/06 06:08:18;;;;;;;;;11.33;9.33;;;;;;;;5000698;28;45253;-83
2024/03/06 06:10:43;;;;;;;;;14.00;11.00;;;;;;;;5000547;28;45474;-83
2024/03/06 06:13:08;;;;;;;;;12.00;12.00;;;;;;;;5018693;28;45567;-83
2024/03/06 06:15:34;;;;;;;;;10.67;9.67;;;;;;;;5018413;28;45297;-83
2024/03/06 06:17:59;;;;;;;;;14.00;12.00;;;;;;;;5000578;28;45749;-83
2024/03/06 06:20:24;;;;;;;;;12.67;12.67;;;;;;;;4997899;28;45236;-83
2024/03/06 06:22:49;;;;;;;;;13.00;10.67;;;;;;;;4998047;28;46145;-84
2024/03/06 06:25:16;;;;;;;;;13.00;12.00;;;;;;;;4983116;28;48255;-83
2024/03/06 06:27:41;;;;;;;;;12.33;12.33;;;;;;;;5001845;28;45239;-83
2024/03/06 06:30:11;;;;;;;;;14.00;11.33;;;;;;;;4983615;28;45262;-81
2024/03/06 06:32:36;;;;;;;;;14.33;14.00;;;;;;;;4983872;28;47346;-82
2024/03/06 06:35:01;;;;;;;;;17.33;14.33;;;;;;;;5001612;28;45498;-81
2024/03/06 06:37:26;;;;;;;;;16.33;14.67;;;;;;;;4984074;28;45334;-81
2024/03/06 06:39:52;;;;;;;;;13.00;12.67;;;;;;;;5001946;28;45254;-83
2024/03/06 06:42:17;;;;;;;;;20.33;20.33;;;;;;;;4983742;28;46225;-83
2024/03/06 06:44:42;;;;;;;;;15.67;14.33;;;;;;;;5001578;28;46310;-82
2024/03/06 06:47:07;;;;;;;;;18.00;13.67;;;;;;;;4983986;28;45564;-82
2024/03/06 06:49:33;;;;;;;;;17.00;16.00;;;;;;;;5001495;28;45318;-80
2024/03/06 06:51:59;;;;;;;;;16.67;14.33;;;;;;;;4996407;28;45507;-82
2024/03/06 06:54:24;;;;;;;;;17.33;16.33;;;;;;;;5000753;28;45410;-81
2024/03/06 06:56:49;;;;;;;;;13.33;13.33;;;;;;;;4983709;28;46156;-80
2024/03/06 06:59:14;;;;;;;;;17.67;15.33;;;;;;;;4983840;28;45388;-79
2024/03/06 07:01:41;;;;;;;;;18.00;17.00;;;;;;;;4978560;28;47394;-78
2024/03/06 07:04:06;;;;;;;;;24.00;20.00;;;;;;;;4983436;28;47947;-77
2024/03/06 07:06:31;;;;;;;;;36.67;32.33;;;;;;;;4982560;28;45409;-78
2024/03/06 07:08:57;;;;;;;;;29.33;26.00;;;;;;;;4983263;28;45431;-77
2024/03/06 07:11:23;;;;;;;;;36.00;28.67;;;;;;;;5000020;28;45470;-78
2024/03/06 07:13:48;;;;;;;;;31.67;30.00;;;;;;;;4982692;28;48092;-78
2024/03/06 07:16:14;;;;;;;;;38.00;33.33;;;;;;;;5000577;28;45288;-78
2024/03/06 07:18:39;;;;;;;;;36.67;30.67;;;;;;;;5000363;28;45417;-78
2024/03/06 07:21:05;;;;;;;;;35.00;33.00;;;;;;;;5000388;28;45562;-78
2024/03/06 07:23:30;;;;;;;;;33.00;32.00;;;;;;;;5001584;28;45788;-79
2024/03/06 07:25:57;;;;;;;;;38.67;34.33;;;;;;;;5000918;28;45341;-79
2024/03/06 07:28:22;;;;;;;;;41.67;33.67;;;;;;;;5002538;28;45322;-80
2024/03/06 07:30:47;;;;;;;;;41.00;34.00;;;;;;;;4985248;28;46216;-79
2024/03/06 07:33:13;;;;;;;;;41.33;34.67;;;;;;;;5007547;28;46396;-79
2024/03/06 07:35:39;;;;;;;;;34.67;33.00;;;;;;;;5001445;28;45464;-79
2024/03/06 07:38:04;;;;;;;;;39.00;35.00;;;;;;;;5001054;28;45302;-80
2024/03/06 07:40:30;;;;;;;;;37.00;33.33;;;;;;;;5001026;28;45458;-79
2024/03/06 07:42:55;;;;;;;;;42.00;34.00;;;;;;;;4982263;28;47300;-79
2024/03/06 07:45:20;;;;;;;;;40.33;35.67;;;;;;;;5000509;28;45276;-79
2024/03/06 07:47:46;;;;;;;;;41.33;35.00;;;;;;;;4999625;28;45566;-79
2024/03/06 07:50:12;;;;;;;;;40.33;34.00;;;;;;;;5000343;28;45485;-79
2024/03/06 07:52:37;;;;;;;;;39.00;33.00;;;;;;;;4982620;28;47407;-79
2024/03/06 07:55:03;;;;;;;;;38.67;32.33;;;;;;;;4984065;28;45462;-80
2024/03/06 07:57:28;;;;;;;;;36.33;33.33;;;;;;;;5009499;28;45376;-80
2024/03/06 07:59:54;;;;;;;;;46.33;37.67;;;;;;;;5002426;28;46228;-79
2024/03/06 08:02:19;;;;;;;;;39.67;33.00;;;;;;;;5020332;28;45305;-80
2024/03/06 08:04:45;;;;;;;;;42.33;36.33;;;;;;;;5002248;28;46120;-81
2024/03/06 08:07:10;;;;;;;;;44.00;35.67;;;;;;;;5002520;28;45779;-79
2024/03/06 08:09:35;;;;;;;;;37.33;32.67;;;;;;;;5002179;28;46549;-78
2024/03/06 08:12:00;;;;;;;;;44.33;38.00;;;;;;;;5018553;28;45361;-79
2024/03/06 08:14:27;;;;;;;;;39.00;33.33;;;;;;;;5019179;28;45476;-80
2024/03/06 08:16:52;;;;;;;;;41.00;34.67;;;;;;;;5022942;28;45241;-81
2024/03/06 08:19:17;;;;;;;;;41.00;36.00;;;;;;;;4988647;28;45992;-80
2024/03/06 08:21:42;;;;;;;;;42.00;35.67;;;;;;;;4982073;28;48268;-80
2024/03/06 08:24:08;;;;;;;;;41.00;34.33;;;;;;;;4999449;28;45372;-80
2024/03/06 08:26:33;;;;;;;;;43.00;37.67;;;;;;;;4981669;28;45338;-81
2024/03/06 08:28:58;;;;;;;;;42.00;35.00;;;;;;;;4999858;28;45371;-81
2024/03/06 08:31:25;;;;;;;;;50.00;39.00;;;;;;;;4999484;28;46528;-79
2024/03/06 08:33:50;;;;;;;;;38.67;33.67;;;;;;;;4999119;28;45404;-80
2024/03/06 08:36:15;;;;;;;;;36.33;31.67;;;;;;;;4999226;28;45407;-82
2024/03/06 08:38:40;;;;;;;;;33.33;31.00;;;;;;;;4981259;28;46095;-82
2024/03/06 08:41:06;;;;;;;;;34.67;31.00;;;;;;;;4999040;28;45405;-79
2024/03/06 08:43:31;;;;;;;;;36.33;31.33;;;;;;;;4981229;28;45466;-80
2024/03/06 08:45:56;;;;;;;;;38.67;32.00;;;;;;;;4999112;28;45380;-80
2024/03/06 08:48:22;;;;;;;;;39.00;32.67;;;;;;;;4979370;28;47019;-80
2024/03/06 08:50:47;;;;;;;;;39.00;33.67;;;;;;;;4998074;28;46310;-80
2024/03/06 08:53:13;;;;;;;;;33.00;31.00;;;;;;;;4998879;28;45257;-81
2024/03/06 08:55:39;;;;;;;;;36.67;34.00;;;;;;;;4999775;28;45325;-79
2024/03/06 08:58:04;;;;;;;;;40.67;35.00;;;;;;;;5012934;28;45515;-80
2024/03/06 09:00:29;;;;;;;;;35.33;31.67;;;;;;;;5019152;28;45439;-79
2024/03/06 09:02:54;;;;;;;;;47.00;35.67;;;;;;;;5019368;28;45309;-77
2024/03/06 09:05:21;;;;;;;;;50.33;40.00;;;;;;;;5019348;28;45241;-80
2024/03/06 09:07:46;;;;;;;;;40.33;35.67;;;;;;;;5019140;28;45330;-80
2024/03/06 09:10:12;;;;;;;;;41.00;35.33;;;;;;;;5018982;28;46414;-78
2024/03/06 09:12:37;;;;;;;;;33.00;28.67;;;;;;;;5000430;28;45375;-77
2024/03/06 09:15:03;;;;;;;;;38.00;35.33;;;;;;;;5019115;28;45293;-78
2024/03/06 09:17:28;;;;;;;;;34.33;30.67;;;;;;;;5019212;28;45343;-78
2024/03/06 09:19:54;;;;;;;;;42.33;34.67;;;;;;;;5019101;28;45317;-79
2024/03/06 09:22:19;;;;;;;;;42.67;34.67;;;;;;;;5007511;28;45375;-79
2024/03/06 09:24:44;;;;;;;;;29.67;27.33;;;;;;;;4998921;28;45310;-78
2024/03/06 09:27:09;;;;;;;;;37.33;30.67;;;;;;;;5000193;28;45226;-80
2024/03/06 09:29:35;;;;;;;;;35.00;31.67;;;;;;;;4979711;28;47411;-81
2024/03/06 09:32:00;;;;;;;;;38.00;33.67;;;;;;;;4996979;28;45354;-81
2024/03/06 09:34:26;;;;;;;;;32.33;30.67;;;;;;;;4980401;28;45408;-81
2024/03/06 09:36:51;;;;;;;;;30.67;29.67;;;;;;;;4997759;28;45542;-82
2024/03/06 09:39:20;;;;;;;;;33.00;31.00;;;;;;;;4998664;28;45290;-80
2024/03/06 09:41:51;;;;;;;;;33.00;31.33;;;;;;;;4999039;28;45377;-81
2024/03/06 09:44:17;;;;;;;;;30.67;27.33;;;;;;;;4999033;28;45232;-80
2024/03/06 09:46:44;;;;;;;;;26.33;23.67;;;;;;;;4980358;28;46303;-79
2024/03/06 09:49:09;;;;;;;;;31.67;27.00;;;;;;;;4980774;28;48172;-79
2024/03/06 09:51:35;;;;;;;;;23.67;20.00;;;;;;;;4998225;28;45437;-80
2024/03/06 09:54:00;;;;;;;;;21.67;20.00;;;;;;;;4998676;28;45283;-79
2024/03/06 09:56:25;;;;;;;;;31.33;27.00;;;;;;;;4981095;28;47009;-81
2024/03/06 09:58:53;;;;;;;;;29.33;27.00;;;;;;;;5020145;28;45578;-81
2024/03/06 10:01:19;;;;;;;;;33.67;30.67;;;;;;;;5022334;28;45263;-81
2024/03/06 10:03:46;;;;;;;;;21.67;21.00;;;;;;;;5004705;28;45340;-83
2024/03/06 10:06:11;;;;;;;;;32.50;30.00;;;;;;;;5021863;28;45705;-83
2024/03/06 10:08:37;;;;;;;;;32.33;29.00;;;;;;;;5003652;28;47114;-83
2024/03/06 10:11:06;;;;;;;;;33.33;31.00;;;;;;;;5019091;28;45159;-83
2024/03/06 10:13:31;;;;;;;;;30.00;29.00;;;;;;;;5000925;28;45689;-83
2024/03/06 10:16:01;;;;;;;;;25.33;25.33;;;;;;;;4985838;28;45831;-83
2024/03/06 10:18:27;;;;;;;;;35.00;32.33;;;;;;;;4985219;28;47274;-83
2024/03/06 10:20:53;;;;;;;;;25.67;24.33;;;;;;;;4998385;28;45295;-83
2024/03/06 10:23:18;;;;;;;;;28.00;26.67;;;;;;;;4993638;28;45437;-81
2024/03/06 10:25:44;;;;;;;;;26.67;23.33;;;;;;;;5001428;28;45258;-81
2024/03/06 10:28:10;;;;;;;;;31.33;28.33;;;;;;;;5002782;28;45388;-80
2024/03/06 10:30:36;;;;;;;;;28.33;28.33;;;;;;;;5002378;28;45468;-82
2024/03/06 10:33:03;;;;;;;;;31.67;28.00;;;;;;;;5019931;28;45561;-83
2024/03/06 10:35:28;;;;;;;;;27.00;26.33;;;;;;;;5006579;28;47034;-83
2024/03/06 10:37:54;;;;;;;;;31.67;26.67;;;;;;;;5006699;28;46378;-83
2024/03/06 10:40:20;;;;;;;;;32.67;26.67;;;;;;;;5003855;28;45291;-83
2024/03/06 10:42:46;;;;;;;;;30.33;25.33;;;;;;;;5003997;28;45329;-83
2024/03/06 10:45:13;;;;;;;;;32.00;30.00;;;;;;;;4986477;28;46071;-82
2024/03/06 10:47:39;;;;;;;;;32.67;31.00;;;;;;;;5003568;28;45400;-82
2024/03/06 10:50:09;;;;;;;;;36.00;32.00;;;;;;;;4983323;28;45486;-81
2024/03/06 10:52:35;;;;;;;;;30.00;25.67;;;;;;;;4983182;28;45431;-82
2024/03/06 10:55:01;;;;;;;;;31.67;26.33;;;;;;;;4983442;28;47179;-81
2024/03/06 10:57:58;;;;;;;;;29.67;25.67;;;;;;;;5009730;28;47136;-82
2024/03/06 11:00:24;;;;;;;;;28.33;25.00;;;;;;;;5002612;28;45434;-83
2024/03/06 11:02:51;;;;;;;;;23.33;18.33;;;;;;;;5023241;28;45357;-82
2024/03/06 11:05:16;;;;;;;;;26.00;20.33;;;;;;;;5021760;28;45514;-82
2024/03/06 11:07:41;;;;;;;;;21.33;19.00;;;;;;;;5004704;28;47976;-83
2024/03/06 11:10:07;;;;;;;;;20.33;16.00;;;;;;;;5024979;28;45397;-83
2024/03/06 11:12:37;;;;;;;;;19.00;15.67;;;;;;;;5024544;28;45333;-82
2024/03/06 11:15:10;;;;;;;;;16.33;16.33;;;;;;;;5011224;28;45400;-83
2024/03/06 11:17:36;;;;;;;;;21.67;20.67;;;;;;;;4984909;28;47205;-83
2024/03/06 11:20:06;;;;;;;;;14.00;13.00;;;;;;;;4986050;28;45310;-84
2024/03/06 11:22:50;;;;;;;;;17.00;14.67;;;;;;;;5005369;28;45381;-83
2024/03/06 11:25:34;;;;;;;;;14.67;12.33;;;;;;;;5000442;28;45695;-81
2024/03/06 11:28:03;;;;;;;;;15.33;15.33;;;;;;;;5001985;28;45481;-83
2024/03/06 11:30:30;;;;;;;;;14.67;14.67;;;;;;;;5001923;28;45274;-81
2024/03/06 11:33:00;;;;;;;;;16.33;13.00;;;;;;;;5002199;28;45222;-81
2024/03/06 11:35:27;;;;;;;;;16.33;14.00;;;;;;;;5002353;28;45392;-81
2024/03/06 11:37:53;;;;;;;;;14.33;12.33;;;;;;;;4986161;28;47210;-81
2024/03/06 11:40:25;;;;;;;;;15.67;14.67;;;;;;;;5003114;28;45415;-81
2024/03/06 11:42:50;;;;;;;;;21.67;16.00;;;;;;;;5001783;28;45371;-79
2024/03/06 11:45:16;;;;;;;;;14.67;13.33;;;;;;;;5001346;28;45402;-83
2024/03/06 11:47:57;;;;;;;;;16.33;14.67;;;;;;;;5000344;28;45514;-81
2024/03/06 11:50:23;;;;;;;;;13.33;13.00;;;;;;;;4983531;28;45422;-81
2024/03/06 11:52:49;;;;;;;;;13.33;13.33;;;;;;;;4983525;28;45313;-82
2024/03/06 11:55:15;;;;;;;;;18.00;17.00;;;;;;;;4998028;28;45992;-80
2024/03/06 11:57:40;;;;;;;;;18.00;16.67;;;;;;;;5010888;28;45352;-81
2024/03/06 12:00:06;;;;;;;;;17.67;16.67;;;;;;;;5019337;28;45287;-81
2024/03/06 12:02:32;;;;;;;;;22.67;20.67;;;;;;;;5009649;28;45521;-80
2024/03/06 12:05:02;;;;;;;;;18.33;18.33;;;;;;;;4982401;28;46096;-80
2024/03/06 12:07:27;;;;;;;;;20.67;18.67;;;;;;;;5000405;28;45373;-80
2024/03/06 12:09:53;;;;;;;;;16.33;16.33;;;;;;;;4982629;28;45568;-79
2024/03/06 12:12:18;;;;;;;;;18.33;18.00;;;;;;;;5000226;28;45356;-79
2024/03/06 12:14:43;;;;;;;;;20.33;17.00;;;;;;;;4999991;28;45585;-82
2024/03/06 12:17:13;;;;;;;;;18.67;17.33;;;;;;;;4997459;28;45591;-80
2024/03/06 12:19:38;;;;;;;;;19.67;17.00;;;;;;;;4996378;28;45308;-80
2024/03/06 12:22:08;;;;;;;;;16.67;16.67;;;;;;;;4998325;28;45627;-79
2024/03/06 12:24:33;;;;;;;;;17.00;15.00;;;;;;;;4999087;28;45499;-81
2024/03/06 12:26:59;;;;;;;;;14.00;13.67;;;;;;;;4999129;28;46043;-81
2024/03/06 12:29:27;;;;;;;;;11.00;11.00;;;;;;;;4981183;28;45701;-82
2024/03/06 12:31:53;;;;;;;;;15.33;14.00;;;;;;;;4998578;28;45479;-81
2024/03/06 12:34:18;;;;;;;;;17.00;17.00;;;;;;;;4981517;28;47289;-81
2024/03/06 12:36:43;;;;;;;;;9.67;9.33;;;;;;;;4999285;28;45466;-80
2024/03/06 12:39:29;;;;;;;;;4.67;4.67;;;;;;;;4999699;28;45276;-80
2024/03/06 12:41:54;;;;;;;;;12.00;11.67;;;;;;;;4999196;28;45238;-81
2024/03/06 12:44:19;;;;;;;;;11.67;10.67;;;;;;;;4999740;28;45457;-80
2024/03/06 12:46:44;;;;;;;;;11.33;11.33;;;;;;;;4976452;28;47298;-80
2024/03/06 12:49:10;;;;;;;;;10.00;10.00;;;;;;;;4998913;28;45317;-80
2024/03/06 12:51:35;;;;;;;;;10.67;9.67;;;;;;;;4998662;28;45279;-80
2024/03/06 12:54:01;;;;;;;;;10.00;8.33;;;;;;;;4998295;28;45486;-80
2024/03/06 12:56:26;;;;;;;;;11.67;10.00;;;;;;;;4999454;28;45237;-80
2024/03/06 12:58:51;;;;;;;;;6.00;6.00;;;;;;;;5019546;28;45197;-78
2024/03/06 13:01:17;;;;;;;;;8.00;8.00;;;;;;;;5017166;28;45281;-81
2024/03/06 13:03:42;;;;;;;;;5.33;5.33;;;;;;;;4996581;28;45453;-81
2024/03/06 13:06:07;;;;;;;;;5.67;5.67;;;;;;;;4974077;28;47653;-81
2024/03/06 13:08:32;;;;;;;;;7.00;6.00;;;;;;;;4992839;28;45257;-82
2024/03/06 13:10:58;;;;;;;;;4.67;4.67;;;;;;;;4978001;28;45365;-80
2024/03/06 13:13:23;;;;;;;;;4.33;4.00;;;;;;;;4990308;28;45566;-81
2024/03/06 13:15:49;;;;;;;;;3.00;2.33;;;;;;;;4980782;28;46232;-81
2024/03/06 13:18:15;;;;;;;;;2.67;2.67;;;;;;;;4993456;28;45846;-80
2024/03/06 13:20:40;;;;;;;;;2.33;2.33;;;;;;;;4975721;28;45461;-81
2024/03/06 13:23:06;;;;;;;;;2.00;2.00;;;;;;;;4988671;28;45472;-80
2024/03/06 13:25:31;;;;;;;;;3.00;2.67;;;;;;;;4992422;28;45354;-80
2024/03/06 13:27:56;;;;;;;;;3.00;3.00;;;;;;;;4988303;28;45294;-80
2024/03/06 13:30:23;;;;;;;;;3.00;3.00;;;;;;;;4995626;28;45334;-81
2024/03/06 13:32:48;;;;;;;;;2.00;2.00;;;;;;;;4991768;28;45515;-80
2024/03/06 13:35:13;;;;;;;;;4.00;3.00;;;;;;;;5001342;28;45993;-81
2024/03/06 13:37:39;;;;;;;;;1.67;1.00;;;;;;;;4982327;28;45376;-82
2024/03/06 13:40:07;;;;;;;;;1.00;1.00;;;;;;;;4983686;28;45273;-81
2024/03/06 13:42:32;;;;;;;;;2.00;2.00;;;;;;;;5001302;28;45447;-80
2024/03/06 13:44:57;;;;;;;;;0.33;0.33;;;;;;;;5001039;28;45428;-81
2024/03/06 13:47:23;;;;;;;;;3.00;2.33;;;;;;;;4984300;28;45704;-81
2024/03/06 13:49:48;;;;;;;;;3.67;3.67;;;;;;;;4978624;28;45368;-81
2024/03/06 13:52:15;;;;;;;;;1.67;1.67;;;;;;;;4999841;28;45590;-81
2024/03/06 13:54:41;;;;;;;;;1.25;1.25;;;;;;;;5001396;28;45305;-82
2024/03/06 13:57:07;;;;;;;;;5.00;5.00;;;;;;;;5007098;28;45462;-82
2024/03/06 13:59:32;;;;;;;;;3.50;3.50;;;;;;;;4993551;28;45402;-82
2024/03/06 14:01:59;;;;;;;;;6.50;5.00;;;;;;;;4984019;28;47382;-79
2024/03/06 14:04:24;;;;;;;;;2.50;2.50;;;;;;;;5001634;28;46299;-81
2024/03/06 14:06:49;;;;;;;;;0.00;0.00;;;;;;;;5002731;28;45683;-79
2024/03/06 14:09:14;;;;;;;;;1.00;1.00;;;;;;;;5003605;28;45311;-80
2024/03/06 14:11:40;;;;;;;;;1.75;1.00;;;;;;;;4984280;28;46159;-76
2024/03/06 14:14:05;;;;;;;;;2.25;0.50;;;;;;;;5002595;28;45324;-78
2024/03/06 14:16:30;;;;;;;;;0.25;0.25;;;;;;;;5002062;28;45297;-79
2024/03/06 14:18:56;;;;;;;;;1.00;1.00;;;;;;;;4983723;28;45338;-77
2024/03/06 14:21:21;;;;;;;;;0.00;0.00;;;;;;;;5001342;28;45229;-79